Time;durP1;ratioP1;P1;durP2;ratioP2;P2;SDS_P1;SDS_P2;PMS_P1;PMS_P2;Temp;Humidity;BMP_temperature;BMP_pressure;BME280_temperature;BME280_humidity;BME280_pressure;Samples;Min_cycle;Max_cycle;Signal;HPM_P1;HPM_P2
2023/06/10 00:00:35;;;;;;;6.60;6.20;;;22.50;38.70;;;;;;20452;6860;278506;-72
2023/06/10 00:03:01;;;;;;;6.90;6.37;;;22.70;38.20;;;;;;20454;6860;312638;-72
2023/06/10 00:05:29;;;;;;;6.18;5.75;;;23.00;38.20;;;;;;20672;6860;117271;-72
2023/06/10 00:07:55;;;;;;;6.72;6.10;;;22.70;38.10;;;;;;20663;6858;117323;-72
2023/06/10 00:10:18;;;;;;;6.70;6.30;;;22.50;38.90;;;;;;20436;6859;308539;-72
2023/06/10 00:12:44;;;;;;;6.77;6.27;;;22.40;38.80;;;;;;20665;6859;117486;-72
2023/06/10 00:15:10;;;;;;;6.70;6.30;;;22.30;38.70;;;;;;20676;6860;118537;-72
2023/06/10 00:17:38;;;;;;;6.70;6.20;;;22.10;39.10;;;;;;20460;6860;278864;-72
2023/06/10 00:20:04;;;;;;;6.72;6.32;;;22.20;39.10;;;;;;20658;6860;121583;-72
2023/06/10 00:22:29;;;;;;;6.37;6.07;;;22.10;39.10;;;;;;20650;6860;117426;-72
2023/06/10 00:24:53;;;;;;;6.73;6.33;;;22.10;39.70;;;;;;20455;6860;316914;-71
2023/06/10 00:27:18;;;;;;;7.00;6.40;;;22.00;39.60;;;;;;20678;6860;118533;-72
2023/06/10 00:29:44;;;;;;;7.00;6.60;;;22.00;39.50;;;;;;20469;6860;308157;-72
2023/06/10 00:32:09;;;;;;;6.80;6.40;;;22.20;39.50;;;;;;20434;6860;309585;-72
2023/06/10 00:34:35;;;;;;;7.05;6.55;;;22.50;39.50;;;;;;20460;6860;292731;-72
2023/06/10 00:37:00;;;;;;;7.25;6.65;;;22.70;39.10;;;;;;20667;6860;122472;-72
2023/06/10 00:39:26;;;;;;;7.07;6.47;;;22.50;39.20;;;;;;20458;6860;306115;-72
2023/06/10 00:41:52;;;;;;;6.07;5.77;;;22.60;39.10;;;;;;20668;6860;117220;-72
2023/06/10 00:44:19;;;;;;;6.47;6.07;;;22.40;39.20;;;;;;20437;6860;279683;-72
2023/06/10 00:46:44;;;;;;;6.80;6.40;;;22.50;39.80;;;;;;20457;6860;312067;-72
2023/06/10 00:49:11;;;;;;;6.20;5.90;;;22.40;39.50;;;;;;20662;6860;119929;-71
2023/06/10 00:51:36;;;;;;;6.50;6.07;;;22.40;39.50;;;;;;20670;6860;118391;-72
2023/06/10 00:54:03;;;;;;;6.40;6.00;;;22.10;40.40;;;;;;20456;6860;308669;-71
2023/06/10 00:56:28;;;;;;;6.50;6.10;;;22.10;40.40;;;;;;20640;6860;120001;-72
2023/06/10 00:58:53;;;;;;;6.65;6.18;;;22.00;40.30;;;;;;20462;6860;312213;-72
2023/06/10 01:01:19;;;;;;;6.97;6.55;;;22.10;40.40;;;;;;20662;6860;117234;-71
2023/06/10 01:03:45;;;;;;;7.03;6.43;;;21.70;40.40;;;;;;20671;6860;124196;-71
2023/06/10 01:06:47;;;;;;;7.18;6.68;;;21.70;40.40;;;;;;20438;6860;337645;-72
2023/06/10 01:09:09;;;;;;;6.80;6.40;;;21.80;40.50;;;;;;20450;6860;279073;-72
2023/06/10 01:11:52;;;;;;;6.97;6.47;;;22.20;40.30;;;;;;20410;6860;341623;-72
2023/06/10 01:14:18;;;;;;;6.53;6.23;;;21.90;40.40;;;;;;20588;6860;119074;-72
2023/06/10 01:16:45;;;;;;;6.97;6.37;;;21.90;40.40;;;;;;20678;6860;117979;-72
2023/06/10 01:19:10;;;;;;;6.33;5.93;;;21.60;40.80;;;;;;20673;6858;119541;-72
2023/06/10 01:21:36;;;;;;;7.37;6.70;;;21.20;41.20;;;;;;20443;6859;310688;-72
2023/06/10 01:24:03;;;;;;;7.00;6.60;;;21.70;41.10;;;;;;20462;6859;308449;-71
2023/06/10 01:26:28;;;;;;;6.87;6.43;;;21.70;41.00;;;;;;20645;6860;118430;-71
2023/06/10 01:29:04;;;;;;;7.05;6.55;;;21.60;40.90;;;;;;20458;6860;308948;-72
2023/06/10 01:31:38;;;;;;;7.50;7.00;;;21.70;41.20;;;;;;20432;6860;309013;-72
2023/06/10 01:34:04;;;;;;;7.23;6.80;;;21.90;40.90;;;;;;20449;6860;283192;-72
2023/06/10 01:36:29;;;;;;;7.35;6.80;;;22.10;40.60;;;;;;20394;6860;308628;-72
2023/06/10 01:38:55;;;;;;;7.53;7.03;;;22.20;40.30;;;;;;20454;6860;308582;-72
2023/06/10 01:41:21;;;;;;;7.17;6.70;;;22.30;40.40;;;;;;20663;6860;117210;-72
2023/06/10 01:43:46;;;;;;;7.13;6.63;;;22.00;40.60;;;;;;20661;6860;117721;-72
2023/06/10 01:46:12;;;;;;;7.15;6.75;;;21.60;41.00;;;;;;20428;6860;312454;-72
2023/06/10 01:48:37;;;;;;;7.07;6.68;;;21.70;41.60;;;;;;20673;6860;117521;-72
2023/06/10 01:51:03;;;;;;;7.10;6.60;;;21.50;41.50;;;;;;20466;6860;279412;-72
2023/06/10 01:53:29;;;;;;;6.73;6.30;;;21.60;41.60;;;;;;20677;6860;117242;-72
2023/06/10 01:55:55;;;;;;;7.43;6.83;;;21.50;41.60;;;;;;20457;6860;308646;-72
2023/06/10 01:58:20;;;;;;;7.03;6.53;;;21.60;41.80;;;;;;20654;6860;117460;-72
2023/06/10 02:00:46;;;;;;;6.80;6.50;;;21.40;41.70;;;;;;20665;6860;117594;-72
2023/06/10 02:03:12;;;;;;;6.90;6.50;;;21.30;43.10;;;;;;20454;6860;283933;-72
2023/06/10 02:05:38;;;;;;;6.90;6.50;;;21.30;42.40;;;;;;20668;6860;120290;-72
2023/06/10 02:08:04;;;;;;;7.10;6.60;;;21.20;42.20;;;;;;20456;6860;307738;-72
2023/06/10 02:10:29;;;;;;;6.57;6.20;;;21.40;42.50;;;;;;20654;6860;119722;-72
2023/06/10 02:12:55;;;;;;;7.30;6.80;;;21.30;42.30;;;;;;20460;6860;307243;-72
2023/06/10 02:15:20;;;;;;;6.45;6.15;;;21.40;42.40;;;;;;20675;6860;119511;-72
2023/06/10 02:17:48;;;;;;;7.37;6.97;;;21.40;43.20;;;;;;20471;6860;278667;-72
2023/06/10 02:20:13;;;;;;;6.57;6.27;;;21.30;42.50;;;;;;20649;6860;120370;-73
2023/06/10 02:22:38;;;;;;;7.07;6.57;;;21.20;42.50;;;;;;20675;6860;117442;-72
2023/06/10 02:25:03;;;;;;;7.47;6.97;;;20.90;42.80;;;;;;20463;6860;278574;-72
2023/06/10 02:27:30;;;;;;;7.40;7.00;;;21.10;43.20;;;;;;20442;6860;296959;-72
2023/06/10 02:29:54;;;;;;;8.10;7.60;;;21.30;42.90;;;;;;20671;6858;117181;-72
2023/06/10 02:32:20;;;;;;;8.17;7.67;;;21.20;42.90;;;;;;20443;6859;283202;-72
2023/06/10 02:34:46;;;;;;;8.20;7.70;;;21.20;43.30;;;;;;20674;6859;117365;-72
2023/06/10 02:37:11;;;;;;;8.55;8.05;;;21.10;43.20;;;;;;20454;6860;308490;-76
2023/06/10 02:39:37;;;;;;;7.53;7.10;;;20.90;43.40;;;;;;20671;6860;125385;-72
2023/06/10 02:42:03;;;;;;;8.65;8.02;;;20.90;43.40;;;;;;20458;6860;337764;-72
2023/06/10 02:44:29;;;;;;;7.10;6.70;;;21.00;43.70;;;;;;20647;6860;117401;-72
2023/06/10 02:46:55;;;;;;;8.27;7.85;;;20.80;43.40;;;;;;20455;6860;341873;-72
2023/06/10 02:49:20;;;;;;;7.87;7.40;;;20.80;43.60;;;;;;20667;6860;117313;-72
2023/06/10 02:51:46;;;;;;;8.30;7.87;;;20.60;43.50;;;;;;20675;6860;117828;-72
2023/06/10 02:54:11;;;;;;;7.72;7.30;;;20.30;43.90;;;;;;20434;6860;313481;-72
2023/06/10 02:56:37;;;;;;;8.50;8.00;;;20.40;44.60;;;;;;20458;6860;338546;-72
2023/06/10 02:59:02;;;;;;;8.32;7.82;;;20.60;44.00;;;;;;20457;6860;307600;-72
2023/06/10 03:01:28;;;;;;;7.72;7.22;;;20.90;43.70;;;;;;20670;6860;117310;-72
2023/06/10 03:03:56;;;;;;;8.40;7.90;;;20.70;43.80;;;;;;20460;6860;307685;-72
2023/06/10 03:06:20;;;;;;;7.80;7.30;;;20.60;43.90;;;;;;20644;6860;118396;-72
2023/06/10 03:08:46;;;;;;;7.83;7.13;;;20.40;44.00;;;;;;20671;6860;118330;-72
2023/06/10 03:11:11;;;;;;;8.13;7.62;;;20.10;44.40;;;;;;20470;6860;278951;-72
2023/06/10 03:13:37;;;;;;;7.32;6.93;;;20.20;44.90;;;;;;20673;6860;123006;-72
2023/06/10 03:16:03;;;;;;;8.00;7.47;;;20.10;45.00;;;;;;20665;6860;117908;-72
2023/06/10 03:18:28;;;;;;;8.43;7.82;;;19.80;45.00;;;;;;20440;6860;279347;-72
2023/06/10 03:20:54;;;;;;;8.35;7.70;;;20.00;45.20;;;;;;20672;6860;123605;-72
2023/06/10 03:23:19;;;;;;;7.37;7.03;;;19.90;45.10;;;;;;20668;6860;119936;-72
2023/06/10 03:25:45;;;;;;;7.25;6.85;;;19.60;45.30;;;;;;20666;6860;117433;-72
2023/06/10 03:28:10;;;;;;;8.55;8.10;;;19.40;45.50;;;;;;20431;6860;311924;-72
2023/06/10 03:30:36;;;;;;;8.67;8.13;;;19.60;45.80;;;;;;20457;6860;292600;-72
2023/06/10 03:33:01;;;;;;;8.30;7.90;;;20.00;45.40;;;;;;20459;6860;311978;-72
2023/06/10 03:35:27;;;;;;;8.73;8.23;;;20.30;45.00;;;;;;20456;6860;308014;-72
2023/06/10 03:37:54;;;;;;;7.80;7.40;;;20.40;44.60;;;;;;20671;6860;117334;-72
2023/06/10 03:40:20;;;;;;;8.50;8.10;;;20.20;44.60;;;;;;20440;6860;309853;-72
2023/06/10 03:42:45;;;;;;;8.32;7.80;;;20.20;45.00;;;;;;20456;6858;278996;-72
2023/06/10 03:45:11;;;;;;;8.20;7.80;;;20.40;44.80;;;;;;20463;6859;341938;-72
2023/06/10 03:47:36;;;;;;;8.23;7.57;;;20.50;44.60;;;;;;20669;6859;117240;-72
2023/06/10 03:50:05;;;;;;;8.30;7.80;;;20.30;44.70;;;;;;20448;6860;308604;-71
2023/06/10 03:52:31;;;;;;;8.20;7.70;;;20.30;44.80;;;;;;20635;6860;117917;-71
2023/06/10 03:54:56;;;;;;;8.50;8.00;;;20.10;44.90;;;;;;20455;6860;337312;-71
2023/06/10 03:57:22;;;;;;;8.57;7.97;;;20.10;45.20;;;;;;20467;6860;307626;-71
2023/06/10 03:59:47;;;;;;;8.40;7.73;;;20.40;45.10;;;;;;20672;6860;123229;-71
2023/06/10 04:02:13;;;;;;;7.70;7.20;;;20.20;45.00;;;;;;20646;6860;117934;-71
2023/06/10 04:04:38;;;;;;;8.45;7.87;;;19.90;45.40;;;;;;20454;6860;311200;-71
2023/06/10 04:07:04;;;;;;;8.07;7.37;;;19.90;45.80;;;;;;20671;6860;117782;-71
2023/06/10 04:09:29;;;;;;;10.18;9.57;;;19.90;45.80;;;;;;20666;6860;117684;-71
2023/06/10 04:11:56;;;;;;;8.35;7.78;;;19.50;46.40;;;;;;20669;6860;118592;-72
2023/06/10 04:14:21;;;;;;;8.57;8.07;;;19.40;46.30;;;;;;20445;6860;310489;-71
2023/06/10 04:16:47;;;;;;;8.45;7.95;;;19.70;46.80;;;;;;20413;6860;342288;-71
2023/06/10 04:19:13;;;;;;;8.02;7.60;;;20.40;46.00;;;;;;20440;6860;308167;-71
2023/06/10 04:21:39;;;;;;;8.10;7.60;;;20.40;46.00;;;;;;20647;6860;117664;-71
2023/06/10 04:24:04;;;;;;;8.77;8.17;;;20.30;45.90;;;;;;20449;6860;308417;-71
2023/06/10 04:26:30;;;;;;;8.13;7.72;;;20.40;46.00;;;;;;20433;6860;279572;-71
2023/06/10 04:28:56;;;;;;;8.00;7.60;;;20.80;45.60;;;;;;20451;6860;342134;-71
2023/06/10 04:31:22;;;;;;;7.60;7.20;;;20.80;45.60;;;;;;20658;6860;118127;-71
2023/06/10 04:33:49;;;;;;;7.87;7.37;;;20.60;45.70;;;;;;20439;6860;337704;-72
2023/06/10 04:36:15;;;;;;;7.10;6.50;;;20.70;46.30;;;;;;20646;6860;118322;-71
2023/06/10 04:38:41;;;;;;;7.60;7.17;;;20.30;46.50;;;;;;20671;6860;120535;-71
2023/06/10 04:41:08;;;;;;;7.55;7.20;;;20.30;46.50;;;;;;20444;6860;343198;-73
2023/06/10 04:43:34;;;;;;;7.80;7.25;;;20.80;46.60;;;;;;20465;6860;278258;-77
2023/06/10 04:46:01;;;;;;;8.10;7.60;;;21.10;46.20;;;;;;20463;6860;307280;-72
2023/06/10 04:48:26;;;;;;;7.67;7.27;;;21.10;46.10;;;;;;20629;6860;117533;-72
2023/06/10 04:50:52;;;;;;;7.90;7.40;;;21.00;46.10;;;;;;20456;6860;337317;-72
2023/06/10 04:53:20;;;;;;;7.40;7.00;;;21.10;46.50;;;;;;20659;6858;117246;-73
2023/06/10 04:55:45;;;;;;;7.80;7.20;;;21.00;47.10;;;;;;20654;6859;117279;-73
2023/06/10 04:58:10;;;;;;;8.27;7.78;;;20.70;46.60;;;;;;20420;6859;337646;-73
2023/06/10 05:00:36;;;;;;;7.25;6.85;;;20.90;46.60;;;;;;20663;6860;117732;-73
2023/06/10 05:03:01;;;;;;;8.38;7.93;;;20.90;46.40;;;;;;20448;6860;280707;-73
2023/06/10 05:05:27;;;;;;;8.50;7.90;;;21.30;45.90;;;;;;20437;6860;321551;-72
2023/06/10 05:07:53;;;;;;;8.30;7.70;;;21.20;45.80;;;;;;20642;6860;117822;-73
2023/06/10 05:10:19;;;;;;;8.00;7.57;;;21.10;45.80;;;;;;20648;6860;119468;-70
2023/06/10 05:12:45;;;;;;;8.10;7.63;;;20.80;46.10;;;;;;20669;6860;118421;-71
2023/06/10 05:15:10;;;;;;;7.77;7.37;;;20.50;46.30;;;;;;20637;6860;119754;-70
2023/06/10 05:17:36;;;;;;;8.63;8.10;;;20.40;46.60;;;;;;20442;6860;308597;-70
2023/06/10 05:20:01;;;;;;;8.65;8.15;;;20.60;46.70;;;;;;20447;6860;278205;-70
2023/06/10 05:22:28;;;;;;;8.57;8.07;;;21.00;46.40;;;;;;20426;6860;313223;-70
2023/06/10 05:24:54;;;;;;;8.55;8.05;;;21.30;45.80;;;;;;20437;6860;314016;-71
2023/06/10 05:27:19;;;;;;;8.30;7.80;;;21.50;45.20;;;;;;20670;6860;121414;-70
2023/06/10 05:29:48;;;;;;;8.43;7.93;;;21.40;45.40;;;;;;20452;6860;312226;-72
2023/06/10 05:32:14;;;;;;;7.57;7.17;;;21.20;45.80;;;;;;20636;6860;119503;-71
2023/06/10 05:34:40;;;;;;;7.33;7.00;;;21.20;45.80;;;;;;20662;6860;117496;-70
2023/06/10 05:37:05;;;;;;;8.20;7.57;;;21.00;46.20;;;;;;20653;6860;117722;-71
2023/06/10 05:39:31;;;;;;;8.03;7.53;;;20.80;46.40;;;;;;20448;6860;310586;-71
2023/06/10 05:41:58;;;;;;;7.87;7.37;;;21.10;46.40;;;;;;20663;6860;117328;-71
2023/06/10 05:44:22;;;;;;;7.57;7.17;;;21.20;46.10;;;;;;20622;6860;118218;-71
2023/06/10 05:46:48;;;;;;;8.20;7.70;;;21.20;46.30;;;;;;20456;6860;317444;-71
2023/06/10 05:49:14;;;;;;;7.87;7.47;;;21.90;45.60;;;;;;20460;6860;308164;-71
2023/06/10 05:51:40;;;;;;;7.23;6.90;;;21.90;46.30;;;;;;20653;6860;117938;-71
2023/06/10 05:54:05;;;;;;;7.47;6.97;;;21.90;45.40;;;;;;20652;6860;120886;-72
2023/06/10 05:56:31;;;;;;;7.40;6.90;;;21.90;45.40;;;;;;20627;6860;122025;-70
2023/06/10 05:58:56;;;;;;;7.57;7.18;;;21.70;45.10;;;;;;20430;6860;308976;-71
2023/06/10 06:01:23;;;;;;;7.50;7.00;;;22.20;44.90;;;;;;20628;6860;120244;-70
2023/06/10 06:03:48;;;;;;;7.25;6.85;;;22.20;44.90;;;;;;20418;6860;338196;-70
2023/06/10 06:06:14;;;;;;;6.80;6.30;;;22.60;43.70;;;;;;20632;6858;117862;-69
2023/06/10 06:08:40;;;;;;;6.87;6.40;;;22.70;43.90;;;;;;20442;6859;278577;-69
2023/06/10 06:11:06;;;;;;;6.93;6.53;;;23.20;42.90;;;;;;20437;6859;279391;-70
2023/06/10 06:13:33;;;;;;;6.67;6.33;;;24.70;42.30;;;;;;20667;6860;117170;-69
2023/06/10 06:15:58;;;;;;;6.40;6.00;;;24.70;42.90;;;;;;20641;6860;117783;-70
2023/06/10 06:18:24;;;;;;;6.47;6.17;;;25.10;42.20;;;;;;20653;6860;118509;-70
2023/06/10 06:20:49;;;;;;;6.40;6.00;;;25.60;42.00;;;;;;20457;6860;283348;-70
2023/06/10 06:23:15;;;;;;;6.37;5.97;;;26.40;39.00;;;;;;20461;6860;279290;-71
2023/06/10 06:25:41;;;;;;;6.90;6.50;;;27.30;37.60;;;;;;20662;6860;118098;-69
2023/06/10 06:28:07;;;;;;;6.23;5.83;;;27.90;38.00;;;;;;20458;6860;278561;-70
2023/06/10 06:30:33;;;;;;;6.30;6.00;;;29.20;35.20;;;;;;20426;6860;310018;-69
2023/06/10 06:32:58;;;;;;;6.47;6.17;;;29.10;34.50;;;;;;20455;6860;282575;-70
2023/06/10 06:35:24;;;;;;;6.22;5.93;;;29.80;33.50;;;;;;20671;6860;117203;-70
2023/06/10 06:37:49;;;;;;;6.03;5.73;;;29.90;34.20;;;;;;20667;6860;118877;-70
2023/06/10 06:40:15;;;;;;;5.67;5.37;;;29.80;34.60;;;;;;20656;6860;119901;-71
2023/06/10 06:42:40;;;;;;;5.80;5.50;;;29.80;35.00;;;;;;20677;6860;118638;-70
2023/06/10 06:45:06;;;;;;;6.00;5.70;;;29.90;35.80;;;;;;20451;6860;308772;-69
2023/06/10 06:47:32;;;;;;;7.00;6.40;;;30.40;33.30;;;;;;20447;6860;279581;-71
2023/06/10 06:49:58;;;;;;;5.60;5.30;;;31.10;32.10;;;;;;20661;6860;117406;-72
2023/06/10 06:52:24;;;;;;;6.40;6.10;;;31.50;31.70;;;;;;20449;6860;281994;-69
2023/06/10 06:54:51;;;;;;;6.20;5.87;;;31.40;31.60;;;;;;20452;6860;281376;-71
2023/06/10 06:57:17;;;;;;;6.83;6.53;;;31.90;30.80;;;;;;20455;6860;308082;-71
2023/06/10 06:59:42;;;;;;;6.20;5.90;;;32.10;30.20;;;;;;20667;6860;117479;-68
2023/06/10 07:02:08;;;;;;;6.17;5.80;;;31.90;30.90;;;;;;20653;6860;118475;-70
2023/06/10 07:04:33;;;;;;;7.00;6.60;;;31.60;31.60;;;;;;20467;6854;312576;-69
2023/06/10 07:06:59;;;;;;;6.60;6.30;;;31.60;31.00;;;;;;20716;6843;117214;-71
2023/06/10 07:09:24;;;;;;;6.50;6.10;;;31.70;31.20;;;;;;20718;6843;121186;-73
2023/06/10 07:11:51;;;;;;;7.07;6.37;;;31.60;31.50;;;;;;20508;6843;307951;-72
2023/06/10 07:14:16;;;;;;;6.75;6.45;;;31.60;31.50;;;;;;20434;6860;337614;-72
2023/06/10 07:16:42;;;;;;;6.87;6.37;;;31.80;30.60;;;;;;20416;6873;307948;-73
2023/06/10 07:19:07;;;;;;;6.68;6.28;;;32.00;30.70;;;;;;20452;6862;282807;-74
2023/06/10 07:21:34;;;;;;;6.53;6.03;;;31.90;30.80;;;;;;20719;6842;117955;-72
2023/06/10 07:23:59;;;;;;;6.70;6.30;;;31.90;30.80;;;;;;20664;6860;117920;-71
2023/06/10 07:26:25;;;;;;;6.50;6.10;;;31.60;31.10;;;;;;20610;6874;117857;-71
2023/06/10 07:28:51;;;;;;;6.97;6.57;;;31.20;31.50;;;;;;20454;6860;312673;-72
2023/06/10 07:31:16;;;;;;;6.70;6.30;;;31.10;31.50;;;;;;20457;6860;278619;-72
2023/06/10 07:33:43;;;;;;;6.40;6.10;;;31.40;31.30;;;;;;20464;6860;309115;-71
2023/06/10 07:36:07;;;;;;;6.30;6.00;;;31.50;31.30;;;;;;20457;6860;337285;-76
2023/06/10 07:38:35;;;;;;;6.20;5.70;;;31.60;31.50;;;;;;20531;6860;117821;-72
2023/06/10 07:41:00;;;;;;;6.33;5.93;;;31.30;31.50;;;;;;20679;6860;117417;-72
2023/06/10 07:43:26;;;;;;;6.60;6.20;;;30.80;31.90;;;;;;20458;6860;278636;-73
2023/06/10 07:45:53;;;;;;;6.67;6.27;;;30.80;32.20;;;;;;20466;6860;283083;-72
2023/06/10 07:48:19;;;;;;;6.27;5.97;;;30.90;32.50;;;;;;20437;6860;280440;-71
2023/06/10 07:50:45;;;;;;;6.20;5.90;;;31.00;32.10;;;;;;20678;6860;117667;-72
2023/06/10 07:53:10;;;;;;;6.40;6.00;;;30.80;32.00;;;;;;20456;6860;282280;-72
2023/06/10 07:55:37;;;;;;;6.70;6.30;;;30.80;32.00;;;;;;20461;6860;279071;-72
2023/06/10 07:58:02;;;;;;;6.40;6.10;;;30.80;31.90;;;;;;20451;6860;283320;-72
2023/06/10 08:00:28;;;;;;;6.67;6.20;;;30.90;31.90;;;;;;20635;6860;124563;-73
2023/06/10 08:02:54;;;;;;;6.70;6.40;;;30.60;32.10;;;;;;20424;6860;308595;-72
2023/06/10 08:05:20;;;;;;;7.00;6.60;;;30.50;32.40;;;;;;20435;6860;279126;-71
2023/06/10 08:07:45;;;;;;;5.62;5.30;;;30.60;32.60;;;;;;20647;6860;119088;-72
2023/06/10 08:10:10;;;;;;;6.17;5.87;;;30.50;32.30;;;;;;20625;6860;117996;-72
2023/06/10 08:12:36;;;;;;;6.68;6.20;;;30.10;32.50;;;;;;20431;6860;278479;-72
2023/06/10 08:15:03;;;;;;;6.37;5.87;;;30.40;33.10;;;;;;20401;6860;278144;-73
2023/06/10 08:17:28;;;;;;;6.33;5.90;;;30.40;33.10;;;;;;20601;6860;117866;-72
2023/06/10 08:19:53;;;;;;;5.95;5.65;;;30.40;32.80;;;;;;20627;6860;117205;-71
2023/06/10 08:22:19;;;;;;;6.33;6.03;;;30.20;33.10;;;;;;20584;6860;118915;-73
2023/06/10 08:24:44;;;;;;;6.57;6.10;;;30.00;33.20;;;;;;20409;6860;304623;-73
2023/06/10 08:27:10;;;;;;;6.43;6.07;;;30.20;32.60;;;;;;20649;6860;117349;-71
2023/06/10 08:29:36;;;;;;;6.47;6.00;;;30.20;32.80;;;;;;20444;6858;279713;-71
2023/06/10 08:32:01;;;;;;;5.67;5.27;;;30.40;32.50;;;;;;20634;6859;117347;-72
2023/06/10 08:34:27;;;;;;;6.17;5.77;;;30.40;32.80;;;;;;20638;6859;117660;-71
2023/06/10 08:36:55;;;;;;;8.23;5.30;;;30.30;33.10;;;;;;20658;6860;117666;-71
2023/06/10 08:39:18;;;;;;;5.90;5.40;;;30.10;33.10;;;;;;20664;6860;117314;-72
2023/06/10 08:41:45;;;;;;;6.20;5.90;;;30.10;33.90;;;;;;20658;6860;117413;-71
2023/06/10 08:44:18;;;;;;;5.70;5.40;;;30.00;33.30;;;;;;20407;6860;339423;-72
2023/06/10 08:46:43;;;;;;;5.83;5.53;;;30.30;33.00;;;;;;20427;6860;308625;-71
2023/06/10 08:49:09;;;;;;;5.77;5.47;;;30.70;32.80;;;;;;20636;6860;118792;-71
2023/06/10 08:51:35;;;;;;;5.77;5.37;;;30.70;32.80;;;;;;20654;6860;117442;-72
2023/06/10 08:54:02;;;;;;;5.23;4.93;;;30.40;33.40;;;;;;20629;6860;117691;-73
2023/06/10 08:56:27;;;;;;;5.37;5.17;;;30.40;32.80;;;;;;20604;6860;120192;-73
2023/06/10 08:58:53;;;;;;;6.23;5.83;;;30.20;33.10;;;;;;20437;6860;283390;-72
2023/06/10 09:01:18;;;;;;;5.70;5.30;;;30.30;32.70;;;;;;20426;6860;307715;-72
2023/06/10 09:03:49;;;;;;;5.47;5.18;;;30.60;32.30;;;;;;20432;6860;309445;-74
2023/06/10 09:06:15;;;;;;;5.60;5.30;;;30.80;32.10;;;;;;20622;6860;119829;-73
2023/06/10 09:08:41;;;;;;;5.00;4.80;;;30.80;32.00;;;;;;20672;6860;117842;-75
2023/06/10 09:11:07;;;;;;;4.83;4.60;;;30.70;32.30;;;;;;20649;6860;117773;-73
2023/06/10 09:13:33;;;;;;;5.40;5.13;;;30.50;32.30;;;;;;20453;6860;307427;-75
2023/06/10 09:16:00;;;;;;;5.30;4.87;;;30.70;32.60;;;;;;20458;6860;278999;-72
2023/06/10 09:18:24;;;;;;;5.00;4.80;;;31.10;32.10;;;;;;20436;6860;332193;-78
2023/06/10 09:20:49;;;;;;;4.80;4.50;;;31.40;31.50;;;;;;20458;6860;307927;-72
2023/06/10 09:23:16;;;;;;;4.90;4.60;;;31.90;31.20;;;;;;20661;6860;118713;-73
2023/06/10 09:25:41;;;;;;;5.07;4.78;;;31.90;30.90;;;;;;20440;6860;298334;-72
2023/06/10 09:28:06;;;;;;;4.30;4.10;;;31.90;30.90;;;;;;20668;6860;117372;-75
2023/06/10 09:30:32;;;;;;;4.80;4.50;;;31.80;31.00;;;;;;20413;6860;279453;-73
2023/06/10 09:33:01;;;;;;;4.90;4.55;;;32.00;30.50;;;;;;20450;6860;307942;-73
2023/06/10 09:35:26;;;;;;;4.77;4.40;;;32.20;29.80;;;;;;20453;6860;278981;-79
2023/06/10 09:37:58;;;;;;;4.78;4.57;;;32.30;30.40;;;;;;20398;6860;337629;-77
2023/06/10 09:40:24;;;;;;;4.90;4.70;;;32.40;29.70;;;;;;20654;6858;121285;-74
2023/06/10 09:42:57;;;;;;;4.80;4.50;;;32.20;29.80;;;;;;20406;6859;310331;-74
2023/06/10 09:45:22;;;;;;;4.72;4.47;;;32.10;30.00;;;;;;20378;6859;310461;-76
2023/06/10 09:47:52;;;;;;;4.30;4.10;;;32.20;29.70;;;;;;20600;6860;119808;-76
2023/06/10 09:50:17;;;;;;;4.37;4.17;;;32.10;29.70;;;;;;20379;6860;287623;-81
2023/06/10 09:52:44;;;;;;;4.60;4.30;;;32.20;30.10;;;;;;20427;6860;340847;-79
2023/06/10 09:55:11;;;;;;;4.60;4.27;;;32.20;30.00;;;;;;20637;6860;117436;-76
2023/06/10 09:57:37;;;;;;;5.00;4.67;;;32.10;29.70;;;;;;20423;6860;307250;-80
2023/06/10 10:00:06;;;;;;;4.30;4.10;;;32.10;30.10;;;;;;20460;6860;313500;-78
2023/06/10 10:02:32;;;;;;;4.67;4.20;;;32.40;29.10;;;;;;20453;6860;308558;-77
2023/06/10 10:05:04;;;;;;;4.60;4.30;;;32.60;29.20;;;;;;20683;6860;118114;-77
2023/06/10 10:07:31;;;;;;;4.30;4.00;;;32.50;28.80;;;;;;20461;6860;291422;-77
2023/06/10 10:09:57;;;;;;;4.18;3.97;;;32.70;28.40;;;;;;20484;6860;307151;-76
2023/06/10 10:12:23;;;;;;;4.07;3.87;;;32.60;28.40;;;;;;20646;6860;118623;-73
2023/06/10 10:14:49;;;;;;;4.20;4.00;;;32.20;28.70;;;;;;20671;6860;117517;-73
2023/06/10 10:17:15;;;;;;;4.10;3.90;;;32.20;28.70;;;;;;20445;6860;308102;-74
2023/06/10 10:19:44;;;;;;;4.27;3.97;;;32.20;29.30;;;;;;20667;6860;117795;-73
2023/06/10 10:22:09;;;;;;;4.10;3.90;;;32.20;29.40;;;;;;20634;6860;118515;-73
2023/06/10 10:24:35;;;;;;;3.90;3.70;;;32.10;29.50;;;;;;20442;6860;300198;-73
2023/06/10 10:27:00;;;;;;;4.27;4.00;;;32.30;29.40;;;;;;20363;6860;278489;-72
2023/06/10 10:29:33;;;;;;;4.20;3.90;;;32.70;28.10;;;;;;20437;6860;337967;-73
2023/06/10 10:32:00;;;;;;;4.10;3.90;;;32.70;28.10;;;;;;20649;6860;117786;-74
2023/06/10 10:34:49;;;;;;;3.73;3.53;;;32.30;28.70;;;;;;20650;6860;118990;-75
2023/06/10 10:37:19;;;;;;;3.90;3.70;;;32.30;28.70;;;;;;20494;6860;117705;-77
2023/06/10 10:39:44;;;;;;;4.50;4.17;;;32.10;29.00;;;;;;20466;6860;279007;-75
2023/06/10 10:42:12;;;;;;;4.43;4.03;;;32.50;28.60;;;;;;20436;6860;316815;-79
2023/06/10 10:44:38;;;;;;;4.33;4.13;;;32.50;28.60;;;;;;20451;6860;278991;-77
2023/06/10 10:47:04;;;;;;;4.50;4.20;;;32.70;28.80;;;;;;20665;6860;117784;-76
2023/06/10 10:49:30;;;;;;;4.25;4.05;;;32.70;28.80;;;;;;20436;6860;307750;-76
2023/06/10 10:52:00;;;;;;;4.30;4.00;;;32.70;28.50;;;;;;20668;6858;121549;-78
2023/06/10 10:54:29;;;;;;;4.80;4.40;;;32.60;28.50;;;;;;20431;6859;338547;-77
2023/06/10 10:57:14;;;;;;;4.57;4.27;;;32.60;28.80;;;;;;20465;6859;309240;-77
2023/06/10 10:59:49;;;;;;;4.37;4.07;;;32.70;28.40;;;;;;20459;6860;308187;-76
2023/06/10 11:02:31;;;;;;;4.63;4.43;;;32.80;28.90;;;;;;20580;6860;120785;-77
2023/06/10 11:04:58;;;;;;;4.90;4.50;;;32.60;28.60;;;;;;20452;6860;279069;-76
2023/06/10 11:07:25;;;;;;;4.50;4.10;;;32.50;29.20;;;;;;20671;6860;117495;-77
2023/06/10 11:10:10;;;;;;;4.80;4.60;;;32.40;29.00;;;;;;20456;6860;278899;-77
2023/06/10 11:12:45;;;;;;;4.63;4.33;;;32.60;29.00;;;;;;20664;6860;117463;-78
2023/06/10 11:15:11;;;;;;;4.83;4.53;;;32.60;28.90;;;;;;20671;6860;117322;-77
2023/06/10 11:17:36;;;;;;;4.40;4.20;;;32.50;28.90;;;;;;20443;6860;303894;-74
2023/06/10 11:20:02;;;;;;;4.45;4.25;;;32.70;28.70;;;;;;20678;6860;118419;-76
2023/06/10 11:22:29;;;;;;;4.45;4.20;;;32.50;28.70;;;;;;20653;6860;123091;-83
2023/06/10 11:24:56;;;;;;;4.30;4.10;;;32.50;29.20;;;;;;20470;6860;308523;-79
2023/06/10 11:27:20;;;;;;;4.30;4.10;;;32.50;28.90;;;;;;20447;6860;311427;-80
2023/06/10 11:30:03;;;;;;;4.40;4.20;;;32.80;28.20;;;;;;20670;6860;121078;-78
2023/06/10 11:32:31;;;;;;;4.80;4.40;;;32.70;28.40;;;;;;20444;6860;308499;-79
2023/06/10 11:34:57;;;;;;;4.17;3.97;;;32.70;28.10;;;;;;20651;6860;117253;-77
2023/06/10 11:37:23;;;;;;;4.45;4.20;;;32.60;28.20;;;;;;20667;6860;121198;-81
2023/06/10 11:39:51;;;;;;;4.43;4.20;;;32.20;28.30;;;;;;20442;6860;298972;-75
2023/06/10 11:42:18;;;;;;;4.47;4.27;;;32.10;28.00;;;;;;20634;6860;119902;-77
2023/06/10 11:44:47;;;;;;;4.10;3.90;;;32.00;27.80;;;;;;20456;6860;278161;-76
2023/06/10 11:47:13;;;;;;;4.10;3.80;;;32.30;28.20;;;;;;20444;6860;283554;-75
2023/06/10 11:49:39;;;;;;;4.53;4.17;;;32.20;28.10;;;;;;20667;6860;118742;-73
2023/06/10 11:52:04;;;;;;;4.32;4.10;;;32.20;28.10;;;;;;20450;6860;302629;-72
2023/06/10 11:54:30;;;;;;;4.40;4.00;;;32.20;28.30;;;;;;20414;6860;278518;-75
2023/06/10 11:57:00;;;;;;;4.67;3.90;;;32.50;27.70;;;;;;20636;6860;116340;-74
2023/06/10 11:59:24;;;;;;;4.30;4.00;;;32.50;27.90;;;;;;20623;6860;118495;-74
2023/06/10 12:01:50;;;;;;;4.60;4.30;;;32.50;28.00;;;;;;20658;6860;117386;-75
2023/06/10 12:04:15;;;;;;;4.40;4.18;;;32.30;28.20;;;;;;20441;6858;283103;-74
2023/06/10 12:06:46;;;;;;;4.50;4.20;;;32.30;28.40;;;;;;20669;6859;117486;-74
2023/06/10 12:09:13;;;;;;;4.60;4.27;;;32.20;28.50;;;;;;20654;6859;117476;-73
2023/06/10 12:11:39;;;;;;;4.00;3.80;;;31.90;28.90;;;;;;20588;6860;117511;-74
2023/06/10 12:14:05;;;;;;;4.65;4.25;;;31.90;28.90;;;;;;20465;6860;345284;-75
2023/06/10 12:16:31;;;;;;;4.07;3.80;;;32.10;28.40;;;;;;20448;6860;278521;-75
2023/06/10 12:18:58;;;;;;;4.00;3.80;;;32.40;28.10;;;;;;20677;6860;117885;-74
2023/06/10 12:21:23;;;;;;;4.00;3.80;;;32.40;27.80;;;;;;20392;6860;278649;-71
2023/06/10 12:23:59;;;;;;;3.60;3.40;;;32.40;27.50;;;;;;20458;6860;278529;-75
2023/06/10 12:26:25;;;;;;;3.33;3.23;;;32.30;27.40;;;;;;20651;6860;121345;-75
2023/06/10 12:28:51;;;;;;;3.50;3.30;;;32.20;27.30;;;;;;20422;6860;335353;-75
2023/06/10 12:31:17;;;;;;;3.40;3.10;;;32.20;27.50;;;;;;20681;6860;118082;-71